sensor_id;sensor_type;location;lat;lon;timestamp;temperature;humidity
4647;DHT22;2336;47.822;7.564;2023-03-01T00:00:40;-3.00;99.90
4647;DHT22;2336;47.822;7.564;2023-03-01T00:03:06;-3.00;99.90
4647;DHT22;2336;47.822;7.564;2023-03-01T00:05:33;-3.00;99.90
4647;DHT22;2336;47.822;7.564;2023-03-01T00:08:00;-3.10;99.90
4647;DHT22;2336;47.822;7.564;2023-03-01T00:10:27;-3.10;99.90
4647;DHT22;2336;47.822;7.564;2023-03-01T00:12:53;-3.10;99.90
4647;DHT22;2336;47.822;7.564;2023-03-01T00:15:21;-3.10;99.90
4647;DHT22;2336;47.822;7.564;2023-03-01T00:17:49;-3.10;99.90
4647;DHT22;2336;47.822;7.564;2023-03-01T00:20:16;-3.20;99.90
4647;DHT22;2336;47.822;7.564;2023-03-01T00:22:43;-3.10;99.90
4647;DHT22;2336;47.822;7.564;2023-03-01T00:25:10;-3.20;99.90
4647;DHT22;2336;47.822;7.564;2023-03-01T00:27:36;-3.20;99.90
4647;DHT22;2336;47.822;7.564;2023-03-01T00:30:04;-3.20;99.90
4647;DHT22;2336;47.822;7.564;2023-03-01T00:32:31;-3.20;99.90
4647;DHT22;2336;47.822;7.564;2023-03-01T00:34:59;-3.30;99.90
4647;DHT22;2336;47.822;7.564;2023-03-01T00:37:25;-3.30;99.90
4647;DHT22;2336;47.822;7.564;2023-03-01T00:39:52;-3.30;99.90
4647;DHT22;2336;47.822;7.564;2023-03-01T00:42:19;-3.30;99.90
4647;DHT22;2336;47.822;7.564;2023-03-01T00:44:45;-3.30;99.90
4647;DHT22;2336;47.822;7.564;2023-03-01T00:47:12;-3.40;99.90
4647;DHT22;2336;47.822;7.564;2023-03-01T00:49:39;-3.30;99.90
4647;DHT22;2336;47.822;7.564;2023-03-01T00:52:07;-3.30;99.90
4647;DHT22;2336;47.822;7.564;2023-03-01T00:54:34;-3.30;99.90
4647;DHT22;2336;47.822;7.564;2023-03-01T00:57:01;-3.30;99.90
4647;DHT22;2336;47.822;7.564;2023-03-01T00:59:27;-3.40;99.90
4647;DHT22;2336;47.822;7.564;2023-03-01T01:01:54;-3.40;99.90
4647;DHT22;2336;47.822;7.564;2023-03-01T01:04:21;-3.40;99.90
4647;DHT22;2336;47.822;7.564;2023-03-01T01:06:47;-3.40;99.90
4647;DHT22;2336;47.822;7.564;2023-03-01T01:09:17;-3.40;99.90
4647;DHT22;2336;47.822;7.564;2023-03-01T01:11:44;-3.40;99.90
4647;DHT22;2336;47.822;7.564;2023-03-01T01:14:11;-3.40;99.90
4647;DHT22;2336;47.822;7.564;2023-03-01T01:16:38;-3.40;99.90
4647;DHT22;2336;47.822;7.564;2023-03-01T01:19:06;-3.40;99.90
4647;DHT22;2336;47.822;7.564;2023-03-01T01:21:33;-3.40;99.90
4647;DHT22;2336;47.822;7.564;2023-03-01T01:24:00;-3.50;99.90
4647;DHT22;2336;47.822;7.564;2023-03-01T01:26:30;-3.50;99.90
4647;DHT22;2336;47.822;7.564;2023-03-01T01:28:57;-3.50;99.90
4647;DHT22;2336;47.822;7.564;2023-03-01T01:31:25;-3.50;99.90
4647;DHT22;2336;47.822;7.564;2023-03-01T01:33:52;-3.50;99.90
4647;DHT22;2336;47.822;7.564;2023-03-01T01:36:20;-3.60;99.90
4647;DHT22;2336;47.822;7.564;2023-03-01T01:38:47;-3.50;99.90
4647;DHT22;2336;47.822;7.564;2023-03-01T01:41:14;-3.60;99.90
4647;DHT22;2336;47.822;7.564;2023-03-01T01:43:44;-3.60;99.90
4647;DHT22;2336;47.822;7.564;2023-03-01T01:46:19;-3.70;99.90
4647;DHT22;2336;47.822;7.564;2023-03-01T01:48:52;-3.70;99.90
4647;DHT22;2336;47.822;7.564;2023-03-01T01:51:25;-3.70;99.90
4647;DHT22;2336;47.822;7.564;2023-03-01T01:53:59;-3.70;99.90
4647;DHT22;2336;47.822;7.564;2023-03-01T01:56:27;-3.70;99.90
4647;DHT22;2336;47.822;7.564;2023-03-01T01:58:57;-3.70;99.90
4647;DHT22;2336;47.822;7.564;2023-03-01T02:01:24;-3.70;99.90
4647;DHT22;2336;47.822;7.564;2023-03-01T02:03:51;-3.80;99.90
4647;DHT22;2336;47.822;7.564;2023-03-01T02:06:21;-3.80;99.90
4647;DHT22;2336;47.822;7.564;2023-03-01T02:08:50;-3.80;99.90
4647;DHT22;2336;47.822;7.564;2023-03-01T02:11:19;-3.80;99.90
4647;DHT22;2336;47.822;7.564;2023-03-01T02:13:47;-3.80;99.90
4647;DHT22;2336;47.822;7.564;2023-03-01T02:16:16;-3.80;99.90
4647;DHT22;2336;47.822;7.564;2023-03-01T02:18:43;-3.80;99.90
4647;DHT22;2336;47.822;7.564;2023-03-01T02:21:22;-3.90;99.90
4647;DHT22;2336;47.822;7.564;2023-03-01T02:23:53;-3.90;99.90
4647;DHT22;2336;47.822;7.564;2023-03-01T02:26:25;-4.00;99.90
4647;DHT22;2336;47.822;7.564;2023-03-01T02:28:55;-4.00;99.90
4647;DHT22;2336;47.822;7.564;2023-03-01T02:31:22;-4.00;99.90
4647;DHT22;2336;47.822;7.564;2023-03-01T02:34:07;-4.00;99.90
4647;DHT22;2336;47.822;7.564;2023-03-01T02:36:36;-4.00;99.90
4647;DHT22;2336;47.822;7.564;2023-03-01T02:39:06;-4.00;99.90
4647;DHT22;2336;47.822;7.564;2023-03-01T02:41:42;-4.00;99.90
4647;DHT22;2336;47.822;7.564;2023-03-01T02:44:10;-4.00;99.90
4647;DHT22;2336;47.822;7.564;2023-03-01T02:46:44;-4.00;99.90
4647;DHT22;2336;47.822;7.564;2023-03-01T02:49:23;-4.00;99.90
4647;DHT22;2336;47.822;7.564;2023-03-01T02:52:20;-4.00;99.90
4647;DHT22;2336;47.822;7.564;2023-03-01T02:54:50;-4.00;99.90
4647;DHT22;2336;47.822;7.564;2023-03-01T02:57:21;-4.00;99.90
4647;DHT22;2336;47.822;7.564;2023-03-01T02:59:50;-4.10;99.90
4647;DHT22;2336;47.822;7.564;2023-03-01T03:02:23;-4.10;99.90
4647;DHT22;2336;47.822;7.564;2023-03-01T03:05:03;-4.00;99.90
4647;DHT22;2336;47.822;7.564;2023-03-01T03:07:32;-4.00;99.90
4647;DHT22;2336;47.822;7.564;2023-03-01T03:09:58;-4.10;99.90
4647;DHT22;2336;47.822;7.564;2023-03-01T03:12:25;-4.20;99.90
4647;DHT22;2336;47.822;7.564;2023-03-01T03:14:53;-4.20;99.90
4647;DHT22;2336;47.822;7.564;2023-03-01T03:17:20;-4.20;99.90
4647;DHT22;2336;47.822;7.564;2023-03-01T03:19:46;-4.20;99.90
4647;DHT22;2336;47.822;7.564;2023-03-01T03:22:13;-4.20;99.90
4647;DHT22;2336;47.822;7.564;2023-03-01T03:24:40;-4.30;99.90
4647;DHT22;2336;47.822;7.564;2023-03-01T03:27:07;-4.30;99.90
4647;DHT22;2336;47.822;7.564;2023-03-01T03:29:34;-4.30;99.90
4647;DHT22;2336;47.822;7.564;2023-03-01T03:32:02;-4.40;99.90
4647;DHT22;2336;47.822;7.564;2023-03-01T03:34:29;-4.40;99.90
4647;DHT22;2336;47.822;7.564;2023-03-01T03:36:56;-4.40;99.90
4647;DHT22;2336;47.822;7.564;2023-03-01T03:39:25;-4.40;99.90
4647;DHT22;2336;47.822;7.564;2023-03-01T03:41:52;-4.50;99.90
4647;DHT22;2336;47.822;7.564;2023-03-01T03:44:19;-4.50;99.90
4647;DHT22;2336;47.822;7.564;2023-03-01T03:46:46;-4.50;99.90
4647;DHT22;2336;47.822;7.564;2023-03-01T03:49:14;-4.50;99.90
4647;DHT22;2336;47.822;7.564;2023-03-01T03:51:40;-4.50;99.90
4647;DHT22;2336;47.822;7.564;2023-03-01T03:54:07;-4.50;99.90
4647;DHT22;2336;47.822;7.564;2023-03-01T03:56:34;-4.50;99.90
4647;DHT22;2336;47.822;7.564;2023-03-01T03:59:01;-4.50;99.90
4647;DHT22;2336;47.822;7.564;2023-03-01T04:01:27;-4.50;99.90
4647;DHT22;2336;47.822;7.564;2023-03-01T04:03:54;-4.50;99.90
4647;DHT22;2336;47.822;7.564;2023-03-01T04:06:22;-4.60;99.90
4647;DHT22;2336;47.822;7.564;2023-03-01T04:08:49;-4.60;99.90
4647;DHT22;2336;47.822;7.564;2023-03-01T04:11:16;-4.60;99.90
4647;DHT22;2336;47.822;7.564;2023-03-01T04:13:57;-4.60;99.90
4647;DHT22;2336;47.822;7.564;2023-03-01T04:16:25;-4.50;99.90
4647;DHT22;2336;47.822;7.564;2023-03-01T04:18:52;-4.50;99.90
4647;DHT22;2336;47.822;7.564;2023-03-01T04:21:21;-4.50;99.90
4647;DHT22;2336;47.822;7.564;2023-03-01T04:23:48;-4.40;99.90
4647;DHT22;2336;47.822;7.564;2023-03-01T04:26:18;-4.50;99.90
4647;DHT22;2336;47.822;7.564;2023-03-01T04:28:44;-4.40;99.90
4647;DHT22;2336;47.822;7.564;2023-03-01T04:31:14;-4.40;99.90
4647;DHT22;2336;47.822;7.564;2023-03-01T04:33:44;-4.50;99.90
4647;DHT22;2336;47.822;7.564;2023-03-01T04:36:12;-4.50;99.90
4647;DHT22;2336;47.822;7.564;2023-03-01T04:38:40;-4.60;99.90
4647;DHT22;2336;47.822;7.564;2023-03-01T04:41:10;-4.60;99.90
4647;DHT22;2336;47.822;7.564;2023-03-01T04:43:37;-4.60;99.90
4647;DHT22;2336;47.822;7.564;2023-03-01T04:46:05;-4.60;99.90
4647;DHT22;2336;47.822;7.564;2023-03-01T04:48:34;-4.60;99.90
4647;DHT22;2336;47.822;7.564;2023-03-01T04:51:02;-4.60;99.90
4647;DHT22;2336;47.822;7.564;2023-03-01T04:53:29;-4.60;99.90
4647;DHT22;2336;47.822;7.564;2023-03-01T04:55:57;-4.70;99.90
4647;DHT22;2336;47.822;7.564;2023-03-01T04:58:25;-4.60;99.90
4647;DHT22;2336;47.822;7.564;2023-03-01T05:00:53;-4.60;99.90
4647;DHT22;2336;47.822;7.564;2023-03-01T05:03:20;-4.70;99.90
4647;DHT22;2336;47.822;7.564;2023-03-01T05:05:49;-4.70;99.90
4647;DHT22;2336;47.822;7.564;2023-03-01T05:08:16;-4.60;99.90
4647;DHT22;2336;47.822;7.564;2023-03-01T05:10:44;-4.60;99.90
4647;DHT22;2336;47.822;7.564;2023-03-01T05:13:14;-4.60;99.90
4647;DHT22;2336;47.822;7.564;2023-03-01T05:15:46;-4.70;99.90
4647;DHT22;2336;47.822;7.564;2023-03-01T05:18:13;-4.70;99.90
4647;DHT22;2336;47.822;7.564;2023-03-01T05:20:40;-4.70;99.90
4647;DHT22;2336;47.822;7.564;2023-03-01T05:23:07;-4.70;99.90
4647;DHT22;2336;47.822;7.564;2023-03-01T05:25:34;-4.70;99.90
4647;DHT22;2336;47.822;7.564;2023-03-01T05:28:06;-4.80;99.90
4647;DHT22;2336;47.822;7.564;2023-03-01T05:30:36;-4.80;99.90
4647;DHT22;2336;47.822;7.564;2023-03-01T05:33:05;-4.90;99.90
4647;DHT22;2336;47.822;7.564;2023-03-01T05:35:39;-4.90;99.90
4647;DHT22;2336;47.822;7.564;2023-03-01T05:38:06;-4.80;99.90
4647;DHT22;2336;47.822;7.564;2023-03-01T05:40:33;-4.80;99.90
4647;DHT22;2336;47.822;7.564;2023-03-01T05:43:00;-4.80;99.90
4647;DHT22;2336;47.822;7.564;2023-03-01T05:45:27;-4.70;99.90
4647;DHT22;2336;47.822;7.564;2023-03-01T05:47:55;-4.80;99.90
4647;DHT22;2336;47.822;7.564;2023-03-01T05:50:24;-4.80;99.90
4647;DHT22;2336;47.822;7.564;2023-03-01T05:52:57;-4.80;99.90
4647;DHT22;2336;47.822;7.564;2023-03-01T05:55:24;-4.80;99.90
4647;DHT22;2336;47.822;7.564;2023-03-01T05:57:51;-4.70;99.90
4647;DHT22;2336;47.822;7.564;2023-03-01T06:00:19;-4.70;99.90
4647;DHT22;2336;47.822;7.564;2023-03-01T06:02:47;-4.70;99.90
4647;DHT22;2336;47.822;7.564;2023-03-01T06:05:16;-4.70;99.90
4647;DHT22;2336;47.822;7.564;2023-03-01T06:07:42;-4.70;99.90
4647;DHT22;2336;47.822;7.564;2023-03-01T06:10:11;-4.80;99.90
4647;DHT22;2336;47.822;7.564;2023-03-01T06:12:39;-4.80;99.90
4647;DHT22;2336;47.822;7.564;2023-03-01T06:15:07;-4.90;99.90
4647;DHT22;2336;47.822;7.564;2023-03-01T06:17:36;-4.90;99.90
4647;DHT22;2336;47.822;7.564;2023-03-01T06:20:05;-4.90;99.90
4647;DHT22;2336;47.822;7.564;2023-03-01T06:22:34;-4.90;99.90
4647;DHT22;2336;47.822;7.564;2023-03-01T06:25:00;-5.00;99.90
4647;DHT22;2336;47.822;7.564;2023-03-01T06:27:27;-5.00;99.90
4647;DHT22;2336;47.822;7.564;2023-03-01T06:29:54;-4.90;99.90
4647;DHT22;2336;47.822;7.564;2023-03-01T06:32:20;-4.90;99.90
4647;DHT22;2336;47.822;7.564;2023-03-01T06:34:47;-4.80;99.90
4647;DHT22;2336;47.822;7.564;2023-03-01T06:37:14;-4.80;99.90
4647;DHT22;2336;47.822;7.564;2023-03-01T06:39:42;-4.80;99.90
4647;DHT22;2336;47.822;7.564;2023-03-01T06:42:09;-4.80;99.90
4647;DHT22;2336;47.822;7.564;2023-03-01T06:44:36;-4.80;99.90
4647;DHT22;2336;47.822;7.564;2023-03-01T06:47:03;-4.80;99.90
4647;DHT22;2336;47.822;7.564;2023-03-01T06:49:30;-4.80;99.90
4647;DHT22;2336;47.822;7.564;2023-03-01T06:51:56;-4.70;99.90
4647;DHT22;2336;47.822;7.564;2023-03-01T06:54:23;-4.70;99.90
4647;DHT22;2336;47.822;7.564;2023-03-01T06:56:51;-4.60;99.90
4647;DHT22;2336;47.822;7.564;2023-03-01T06:59:18;-4.50;99.90
4647;DHT22;2336;47.822;7.564;2023-03-01T07:01:45;-4.40;99.90
4647;DHT22;2336;47.822;7.564;2023-03-01T07:04:13;-4.30;99.90
4647;DHT22;2336;47.822;7.564;2023-03-01T07:06:39;-4.20;99.90
4647;DHT22;2336;47.822;7.564;2023-03-01T07:09:06;-4.10;99.90
4647;DHT22;2336;47.822;7.564;2023-03-01T07:11:33;-4.00;99.90
4647;DHT22;2336;47.822;7.564;2023-03-01T07:14:01;-3.80;99.90
4647;DHT22;2336;47.822;7.564;2023-03-01T07:16:28;-3.70;99.90
4647;DHT22;2336;47.822;7.564;2023-03-01T07:18:55;-3.50;99.90
4647;DHT22;2336;47.822;7.564;2023-03-01T07:21:21;-3.40;99.90
4647;DHT22;2336;47.822;7.564;2023-03-01T07:23:48;-3.30;99.90
4647;DHT22;2336;47.822;7.564;2023-03-01T07:26:15;-3.20;99.90
4647;DHT22;2336;47.822;7.564;2023-03-01T07:28:42;-3.10;99.90
4647;DHT22;2336;47.822;7.564;2023-03-01T07:31:10;-3.00;99.90
4647;DHT22;2336;47.822;7.564;2023-03-01T07:33:36;-2.80;99.90
4647;DHT22;2336;47.822;7.564;2023-03-01T07:36:04;-2.70;99.90
4647;DHT22;2336;47.822;7.564;2023-03-01T07:38:32;-2.60;99.90
4647;DHT22;2336;47.822;7.564;2023-03-01T07:40:59;-2.40;99.90
4647;DHT22;2336;47.822;7.564;2023-03-01T07:43:26;-2.30;99.90
4647;DHT22;2336;47.822;7.564;2023-03-01T07:45:53;-2.30;99.90
4647;DHT22;2336;47.822;7.564;2023-03-01T07:48:21;-2.30;99.90
4647;DHT22;2336;47.822;7.564;2023-03-01T07:50:48;-2.30;99.90
4647;DHT22;2336;47.822;7.564;2023-03-01T07:53:15;-2.30;99.90
4647;DHT22;2336;47.822;7.564;2023-03-01T07:55:41;-2.20;99.90
4647;DHT22;2336;47.822;7.564;2023-03-01T07:58:08;-2.10;99.90
4647;DHT22;2336;47.822;7.564;2023-03-01T08:00:35;-2.00;99.90
4647;DHT22;2336;47.822;7.564;2023-03-01T08:03:01;-1.90;99.90
4647;DHT22;2336;47.822;7.564;2023-03-01T08:05:30;-1.80;99.90
4647;DHT22;2336;47.822;7.564;2023-03-01T08:07:56;-1.70;99.90
4647;DHT22;2336;47.822;7.564;2023-03-01T08:10:23;-1.70;99.90
4647;DHT22;2336;47.822;7.564;2023-03-01T08:12:51;-1.50;99.90
4647;DHT22;2336;47.822;7.564;2023-03-01T08:15:18;-1.40;99.90
4647;DHT22;2336;47.822;7.564;2023-03-01T08:17:45;-1.30;99.90
4647;DHT22;2336;47.822;7.564;2023-03-01T08:20:12;-1.30;99.90
4647;DHT22;2336;47.822;7.564;2023-03-01T08:22:40;-1.20;99.90
4647;DHT22;2336;47.822;7.564;2023-03-01T08:25:07;-1.10;99.90
4647;DHT22;2336;47.822;7.564;2023-03-01T08:27:34;-1.00;99.90
4647;DHT22;2336;47.822;7.564;2023-03-01T08:30:00;-0.90;99.90
4647;DHT22;2336;47.822;7.564;2023-03-01T08:32:27;-0.90;99.90
4647;DHT22;2336;47.822;7.564;2023-03-01T08:34:54;-0.80;99.90
4647;DHT22;2336;47.822;7.564;2023-03-01T08:37:21;-0.70;99.90
4647;DHT22;2336;47.822;7.564;2023-03-01T08:39:49;-0.60;99.90
4647;DHT22;2336;47.822;7.564;2023-03-01T08:42:15;-0.70;99.90
4647;DHT22;2336;47.822;7.564;2023-03-01T08:44:42;-0.60;99.90
4647;DHT22;2336;47.822;7.564;2023-03-01T08:47:09;-0.60;99.90
4647;DHT22;2336;47.822;7.564;2023-03-01T08:49:35;-0.50;99.90
4647;DHT22;2336;47.822;7.564;2023-03-01T08:52:02;-0.30;99.90
4647;DHT22;2336;47.822;7.564;2023-03-01T08:54:29;-0.20;99.90
4647;DHT22;2336;47.822;7.564;2023-03-01T08:56:57;0.00;99.90
4647;DHT22;2336;47.822;7.564;2023-03-01T08:59:25;-0.10;99.90
4647;DHT22;2336;47.822;7.564;2023-03-01T09:01:52;0.00;99.90
4647;DHT22;2336;47.822;7.564;2023-03-01T09:04:19;0.10;99.90
4647;DHT22;2336;47.822;7.564;2023-03-01T09:06:46;0.10;99.90
4647;DHT22;2336;47.822;7.564;2023-03-01T09:09:14;0.10;99.90
4647;DHT22;2336;47.822;7.564;2023-03-01T09:11:42;0.20;99.90
4647;DHT22;2336;47.822;7.564;2023-03-01T09:14:13;0.30;99.90
4647;DHT22;2336;47.822;7.564;2023-03-01T09:16:40;0.20;99.90
4647;DHT22;2336;47.822;7.564;2023-03-01T09:19:06;0.30;99.90
4647;DHT22;2336;47.822;7.564;2023-03-01T09:21:33;0.50;99.90
4647;DHT22;2336;47.822;7.564;2023-03-01T09:24:00;0.50;99.90
4647;DHT22;2336;47.822;7.564;2023-03-01T09:26:27;0.60;99.90
4647;DHT22;2336;47.822;7.564;2023-03-01T09:28:55;0.60;99.90
4647;DHT22;2336;47.822;7.564;2023-03-01T09:31:24;0.70;99.90
4647;DHT22;2336;47.822;7.564;2023-03-01T09:33:52;0.80;99.90
4647;DHT22;2336;47.822;7.564;2023-03-01T09:36:21;0.90;99.90
4647;DHT22;2336;47.822;7.564;2023-03-01T09:38:48;1.00;99.90
4647;DHT22;2336;47.822;7.564;2023-03-01T09:41:26;1.10;99.90
4647;DHT22;2336;47.822;7.564;2023-03-01T09:44:00;1.30;99.90
4647;DHT22;2336;47.822;7.564;2023-03-01T09:46:35;1.50;99.90
4647;DHT22;2336;47.822;7.564;2023-03-01T09:49:09;1.50;99.90
4647;DHT22;2336;47.822;7.564;2023-03-01T09:51:37;1.70;99.90
4647;DHT22;2336;47.822;7.564;2023-03-01T09:54:05;1.60;99.90
4647;DHT22;2336;47.822;7.564;2023-03-01T09:56:36;1.70;99.90
4647;DHT22;2336;47.822;7.564;2023-03-01T09:59:16;1.80;99.90
4647;DHT22;2336;47.822;7.564;2023-03-01T10:01:52;2.00;99.90
4647;DHT22;2336;47.822;7.564;2023-03-01T10:04:28;2.00;99.90
4647;DHT22;2336;47.822;7.564;2023-03-01T10:07:09;2.10;99.90
4647;DHT22;2336;47.822;7.564;2023-03-01T10:09:43;2.20;99.90
4647;DHT22;2336;47.822;7.564;2023-03-01T10:12:14;2.30;99.90
4647;DHT22;2336;47.822;7.564;2023-03-01T10:14:50;2.20;99.90
4647;DHT22;2336;47.822;7.564;2023-03-01T10:17:30;2.40;99.90
4647;DHT22;2336;47.822;7.564;2023-03-01T10:20:14;2.50;99.90
4647;DHT22;2336;47.822;7.564;2023-03-01T10:22:42;2.40;99.90
4647;DHT22;2336;47.822;7.564;2023-03-01T10:25:14;2.20;99.90
4647;DHT22;2336;47.822;7.564;2023-03-01T10:27:47;2.30;99.90
4647;DHT22;2336;47.822;7.564;2023-03-01T10:30:20;2.40;99.90
4647;DHT22;2336;47.822;7.564;2023-03-01T10:32:51;2.50;99.90
4647;DHT22;2336;47.822;7.564;2023-03-01T10:35:20;2.70;99.90
4647;DHT22;2336;47.822;7.564;2023-03-01T10:37:57;2.80;99.90
4647;DHT22;2336;47.822;7.564;2023-03-01T10:40:24;2.90;99.90
4647;DHT22;2336;47.822;7.564;2023-03-01T10:42:51;3.00;99.90
4647;DHT22;2336;47.822;7.564;2023-03-01T10:45:31;3.20;99.90
4647;DHT22;2336;47.822;7.564;2023-03-01T10:48:08;3.50;99.90
4647;DHT22;2336;47.822;7.564;2023-03-01T10:50:37;3.40;99.90
4647;DHT22;2336;47.822;7.564;2023-03-01T10:53:20;3.20;99.90
4647;DHT22;2336;47.822;7.564;2023-03-01T10:55:56;3.40;99.90
4647;DHT22;2336;47.822;7.564;2023-03-01T10:58:24;3.60;99.90
4647;DHT22;2336;47.822;7.564;2023-03-01T11:00:52;3.70;99.90
4647;DHT22;2336;47.822;7.564;2023-03-01T11:03:22;3.70;99.90
4647;DHT22;2336;47.822;7.564;2023-03-01T11:05:55;3.80;99.90
4647;DHT22;2336;47.822;7.564;2023-03-01T11:08:40;3.90;99.90
4647;DHT22;2336;47.822;7.564;2023-03-01T11:11:29;3.90;99.90
4647;DHT22;2336;47.822;7.564;2023-03-01T11:13:58;4.00;99.90
4647;DHT22;2336;47.822;7.564;2023-03-01T11:16:30;4.00;99.90
4647;DHT22;2336;47.822;7.564;2023-03-01T11:19:04;4.10;99.90
4647;DHT22;2336;47.822;7.564;2023-03-01T11:21:33;4.10;99.90
4647;DHT22;2336;47.822;7.564;2023-03-01T11:24:01;4.00;99.90
4647;DHT22;2336;47.822;7.564;2023-03-01T11:26:31;4.10;99.90
4647;DHT22;2336;47.822;7.564;2023-03-01T11:29:03;4.20;99.90
4647;DHT22;2336;47.822;7.564;2023-03-01T11:31:32;4.10;99.90
4647;DHT22;2336;47.822;7.564;2023-03-01T11:34:06;4.30;99.90
4647;DHT22;2336;47.822;7.564;2023-03-01T11:36:35;4.30;99.90
4647;DHT22;2336;47.822;7.564;2023-03-01T11:39:18;4.50;99.90
4647;DHT22;2336;47.822;7.564;2023-03-01T11:41:49;4.70;99.90
4647;DHT22;2336;47.822;7.564;2023-03-01T11:44:21;4.70;99.90
4647;DHT22;2336;47.822;7.564;2023-03-01T11:47:13;4.80;99.90
4647;DHT22;2336;47.822;7.564;2023-03-01T11:50:03;4.60;99.90
4647;DHT22;2336;47.822;7.564;2023-03-01T11:52:41;4.60;99.90
4647;DHT22;2336;47.822;7.564;2023-03-01T11:55:23;4.80;99.90
4647;DHT22;2336;47.822;7.564;2023-03-01T12:01:02;5.00;99.90
4647;DHT22;2336;47.822;7.564;2023-03-01T12:03:45;5.10;99.90
4647;DHT22;2336;47.822;7.564;2023-03-01T12:06:33;5.20;99.90
4647;DHT22;2336;47.822;7.564;2023-03-01T12:09:12;5.00;99.90
4647;DHT22;2336;47.822;7.564;2023-03-01T12:11:55;5.10;99.90
4647;DHT22;2336;47.822;7.564;2023-03-01T12:14:36;5.20;99.90
4647;DHT22;2336;47.822;7.564;2023-03-01T12:20:21;5.20;99.90
4647;DHT22;2336;47.822;7.564;2023-03-01T12:25:48;5.40;99.90
4647;DHT22;2336;47.822;7.564;2023-03-01T12:28:30;5.50;99.90
4647;DHT22;2336;47.822;7.564;2023-03-01T12:31:40;5.60;99.90
4647;DHT22;2336;47.822;7.564;2023-03-01T12:34:20;5.60;99.90
4647;DHT22;2336;47.822;7.564;2023-03-01T12:37:09;5.50;99.90
4647;DHT22;2336;47.822;7.564;2023-03-01T12:39:47;5.40;99.90
4647;DHT22;2336;47.822;7.564;2023-03-01T12:42:26;5.40;99.90
4647;DHT22;2336;47.822;7.564;2023-03-01T12:45:12;5.50;99.90
4647;DHT22;2336;47.822;7.564;2023-03-01T12:47:55;5.60;99.90
4647;DHT22;2336;47.822;7.564;2023-03-01T12:50:37;5.60;99.90
4647;DHT22;2336;47.822;7.564;2023-03-01T12:53:07;5.60;99.90
4647;DHT22;2336;47.822;7.564;2023-03-01T12:55:43;5.60;99.90
4647;DHT22;2336;47.822;7.564;2023-03-01T12:58:21;5.50;99.90
4647;DHT22;2336;47.822;7.564;2023-03-01T13:01:02;5.50;99.90
4647;DHT22;2336;47.822;7.564;2023-03-01T13:03:38;5.60;99.90
4647;DHT22;2336;47.822;7.564;2023-03-01T13:06:16;5.60;99.90
4647;DHT22;2336;47.822;7.564;2023-03-01T13:08:49;5.50;99.90
4647;DHT22;2336;47.822;7.564;2023-03-01T13:11:22;5.40;99.90
4647;DHT22;2336;47.822;7.564;2023-03-01T13:13:50;5.40;99.90
4647;DHT22;2336;47.822;7.564;2023-03-01T13:16:22;5.40;99.90
4647;DHT22;2336;47.822;7.564;2023-03-01T13:19:12;5.50;99.90
4647;DHT22;2336;47.822;7.564;2023-03-01T13:21:40;5.60;99.90
4647;DHT22;2336;47.822;7.564;2023-03-01T13:24:28;5.60;99.90
4647;DHT22;2336;47.822;7.564;2023-03-01T13:27:23;5.50;99.90
4647;DHT22;2336;47.822;7.564;2023-03-01T13:29:56;5.50;99.90
4647;DHT22;2336;47.822;7.564;2023-03-01T13:32:26;5.60;99.90
4647;DHT22;2336;47.822;7.564;2023-03-01T13:34:56;5.70;99.90
4647;DHT22;2336;47.822;7.564;2023-03-01T13:37:28;5.80;99.90
4647;DHT22;2336;47.822;7.564;2023-03-01T13:39:57;5.70;99.90
4647;DHT22;2336;47.822;7.564;2023-03-01T13:42:46;5.70;99.90
4647;DHT22;2336;47.822;7.564;2023-03-01T13:45:19;5.70;99.90
4647;DHT22;2336;47.822;7.564;2023-03-01T13:47:47;5.70;99.90
4647;DHT22;2336;47.822;7.564;2023-03-01T13:50:20;5.70;99.90
4647;DHT22;2336;47.822;7.564;2023-03-01T13:52:53;5.70;99.90
4647;DHT22;2336;47.822;7.564;2023-03-01T13:55:24;5.80;99.90
4647;DHT22;2336;47.822;7.564;2023-03-01T13:57:56;5.80;99.90
4647;DHT22;2336;47.822;7.564;2023-03-01T14:00:37;5.90;99.90
4647;DHT22;2336;47.822;7.564;2023-03-01T14:03:10;5.90;99.90
4647;DHT22;2336;47.822;7.564;2023-03-01T14:05:37;5.90;99.90
4647;DHT22;2336;47.822;7.564;2023-03-01T14:08:13;5.80;99.90
4647;DHT22;2336;47.822;7.564;2023-03-01T14:10:53;5.70;99.90
4647;DHT22;2336;47.822;7.564;2023-03-01T14:13:35;5.70;99.90
4647;DHT22;2336;47.822;7.564;2023-03-01T14:16:14;5.70;99.90
4647;DHT22;2336;47.822;7.564;2023-03-01T14:18:49;5.70;99.90
4647;DHT22;2336;47.822;7.564;2023-03-01T14:21:22;5.60;99.90
4647;DHT22;2336;47.822;7.564;2023-03-01T14:23:51;5.70;99.90
4647;DHT22;2336;47.822;7.564;2023-03-01T14:26:21;5.60;99.90
4647;DHT22;2336;47.822;7.564;2023-03-01T14:28:50;5.60;99.90
4647;DHT22;2336;47.822;7.564;2023-03-01T14:31:36;5.50;99.90
4647;DHT22;2336;47.822;7.564;2023-03-01T14:34:03;5.60;99.90
4647;DHT22;2336;47.822;7.564;2023-03-01T14:36:31;5.60;99.90
4647;DHT22;2336;47.822;7.564;2023-03-01T14:38:58;5.50;99.90
4647;DHT22;2336;47.822;7.564;2023-03-01T14:41:32;5.60;99.90
4647;DHT22;2336;47.822;7.564;2023-03-01T14:44:04;5.50;99.90
4647;DHT22;2336;47.822;7.564;2023-03-01T14:46:34;5.60;99.90
4647;DHT22;2336;47.822;7.564;2023-03-01T14:49:04;5.50;99.90
4647;DHT22;2336;47.822;7.564;2023-03-01T14:51:36;5.60;99.90
4647;DHT22;2336;47.822;7.564;2023-03-01T14:54:05;5.50;99.90
4647;DHT22;2336;47.822;7.564;2023-03-01T14:56:44;5.50;99.90
4647;DHT22;2336;47.822;7.564;2023-03-01T14:59:13;5.40;99.90
4647;DHT22;2336;47.822;7.564;2023-03-01T15:01:41;5.30;99.90
4647;DHT22;2336;47.822;7.564;2023-03-01T15:04:12;5.30;99.90
4647;DHT22;2336;47.822;7.564;2023-03-01T15:06:40;5.40;99.90
4647;DHT22;2336;47.822;7.564;2023-03-01T15:09:13;5.40;99.90
4647;DHT22;2336;47.822;7.564;2023-03-01T15:11:41;5.40;99.90
4647;DHT22;2336;47.822;7.564;2023-03-01T15:14:29;5.40;99.90
4647;DHT22;2336;47.822;7.564;2023-03-01T15:17:04;5.30;99.90
4647;DHT22;2336;47.822;7.564;2023-03-01T15:19:31;5.30;99.90
4647;DHT22;2336;47.822;7.564;2023-03-01T15:21:58;5.30;99.90
4647;DHT22;2336;47.822;7.564;2023-03-01T15:24:25;5.30;99.90
4647;DHT22;2336;47.822;7.564;2023-03-01T15:26:56;5.30;99.90
4647;DHT22;2336;47.822;7.564;2023-03-01T15:29:30;5.20;99.90
4647;DHT22;2336;47.822;7.564;2023-03-01T15:32:00;5.10;99.90
4647;DHT22;2336;47.822;7.564;2023-03-01T15:34:30;5.00;99.90
4647;DHT22;2336;47.822;7.564;2023-03-01T15:36:58;4.90;99.90
4647;DHT22;2336;47.822;7.564;2023-03-01T15:39:36;4.80;99.90
4647;DHT22;2336;47.822;7.564;2023-03-01T15:42:10;4.80;99.90
4647;DHT22;2336;47.822;7.564;2023-03-01T15:44:40;4.80;99.90
4647;DHT22;2336;47.822;7.564;2023-03-01T15:47:25;4.70;99.90
4647;DHT22;2336;47.822;7.564;2023-03-01T15:49:53;4.70;99.90
4647;DHT22;2336;47.822;7.564;2023-03-01T15:52:24;4.70;99.90
4647;DHT22;2336;47.822;7.564;2023-03-01T15:54:55;4.70;99.90
4647;DHT22;2336;47.822;7.564;2023-03-01T15:57:22;4.80;99.90
4647;DHT22;2336;47.822;7.564;2023-03-01T15:59:50;4.80;99.90
4647;DHT22;2336;47.822;7.564;2023-03-01T16:02:17;4.70;99.90
4647;DHT22;2336;47.822;7.564;2023-03-01T16:04:46;4.60;99.90
4647;DHT22;2336;47.822;7.564;2023-03-01T16:07:13;4.60;99.90
4647;DHT22;2336;47.822;7.564;2023-03-01T16:09:40;4.50;99.90
4647;DHT22;2336;47.822;7.564;2023-03-01T16:12:13;4.50;99.90
4647;DHT22;2336;47.822;7.564;2023-03-01T16:14:40;4.40;99.90
4647;DHT22;2336;47.822;7.564;2023-03-01T16:17:08;4.40;99.90
4647;DHT22;2336;47.822;7.564;2023-03-01T16:19:35;4.30;99.90
4647;DHT22;2336;47.822;7.564;2023-03-01T16:22:02;4.30;99.90
4647;DHT22;2336;47.822;7.564;2023-03-01T16:24:29;4.30;99.90
4647;DHT22;2336;47.822;7.564;2023-03-01T16:26:56;4.30;99.90
4647;DHT22;2336;47.822;7.564;2023-03-01T16:29:23;4.30;99.90
4647;DHT22;2336;47.822;7.564;2023-03-01T16:31:49;4.30;99.90
4647;DHT22;2336;47.822;7.564;2023-03-01T16:34:18;4.30;99.90
4647;DHT22;2336;47.822;7.564;2023-03-01T16:36:47;4.20;99.90
4647;DHT22;2336;47.822;7.564;2023-03-01T16:39:14;4.20;99.90